createdAt,value
2018-05-12T00:01:22.550Z,99918.08
2018-05-12T00:05:25.040Z,99912.34
2018-05-12T00:09:27.530Z,99919.99
2018-05-12T00:13:30.018Z,99922.27
2018-05-12T00:17:32.503Z,99918.78
2018-05-12T00:21:35.004Z,99911.33
2018-05-12T00:25:37.503Z,99913.28
2018-05-12T00:29:39.989Z,99915.73
2018-05-12T00:33:42.475Z,99912.23
2018-05-12T00:37:44.957Z,99912.70
2018-05-12T00:46:28.687Z,99906.88
2018-05-12T00:50:31.437Z,99907.42
2018-05-12T00:54:34.236Z,99914.58
2018-05-12T00:58:37.047Z,99912.56
2018-05-12T01:02:39.771Z,99898.91
2018-05-12T01:06:42.447Z,99894.09
2018-05-12T01:38:41.488Z,99919.09
2018-05-12T01:42:44.093Z,99930.67
2018-05-12T01:46:46.750Z,99926.37
2018-05-12T01:50:51.467Z,99913.62
2018-05-12T01:54:54.746Z,99920.30
2018-05-12T01:58:58.116Z,99925.25
2018-05-12T02:03:00.685Z,99917.83
2018-05-12T02:07:03.323Z,99919.66
2018-05-12T02:11:06.028Z,99919.31
2018-05-12T02:15:08.804Z,99927.01
2018-05-12T02:19:11.440Z,99922.27
2018-05-12T02:23:14.146Z,99929.00
2018-05-12T02:27:16.774Z,99924.13
2018-05-12T02:31:19.447Z,99932.07
2018-05-12T02:35:22.085Z,99935.22
2018-05-12T02:39:24.741Z,99939.23
2018-05-12T02:43:27.394Z,99934.88
2018-05-12T02:47:30.059Z,99938.86
2018-05-12T02:51:32.769Z,99928.75
2018-05-12T02:55:35.470Z,99927.50
2018-05-12T03:18:16.092Z,99931.69
2018-05-12T03:22:18.700Z,99928.62
2018-05-12T03:26:21.563Z,99927.73
2018-05-12T04:39:53.188Z,99957.73
2018-05-12T04:43:55.884Z,99955.02
2018-05-12T04:47:58.386Z,99956.20
2018-05-12T04:52:01.183Z,99963.64
2018-05-12T04:56:03.892Z,99967.05
2018-05-12T05:00:06.670Z,99963.79
2018-05-12T05:04:09.430Z,99963.18
2018-05-12T05:12:53.424Z,99970.10
2018-05-12T05:16:56.186Z,99964.77
2018-05-12T05:20:58.894Z,99962.34
2018-05-12T05:25:01.615Z,99963.02
2018-05-12T05:29:04.522Z,99959.70
2018-05-12T05:33:07.253Z,99959.33
2018-05-12T05:37:10.028Z,99961.03
2018-05-12T05:41:12.698Z,99957.30
2018-05-12T05:45:15.375Z,99960.15
2018-05-12T05:49:18.254Z,99959.11
2018-05-12T05:53:21.063Z,99960.97
2018-05-12T05:57:23.764Z,99962.39
2018-05-12T06:01:26.401Z,99965.92
2018-05-12T06:05:29.099Z,99967.47
2018-05-12T06:14:09.983Z,99971.36
2018-05-12T06:18:12.596Z,99974.78
2018-05-12T06:22:15.079Z,99966.80
2018-05-12T06:26:17.633Z,99964.06
2018-05-12T06:30:21.344Z,99968.32
2018-05-12T06:34:23.971Z,99974.76
2018-05-12T06:38:26.774Z,99973.69
2018-05-12T06:42:29.546Z,99964.55
2018-05-12T06:46:32.185Z,99950.98
2018-05-12T06:50:39.897Z,99956.01
2018-05-12T06:54:42.555Z,99943.65
2018-05-12T06:58:45.216Z,99944.85
2018-05-12T07:02:47.932Z,99939.30
2018-05-12T07:06:50.427Z,99935.14
2018-05-12T07:10:58.371Z,99938.98
2018-05-12T07:15:00.968Z,99937.41
2018-05-12T07:19:03.597Z,99940.03
2018-05-12T07:23:06.188Z,99940.31
2018-05-12T07:27:08.784Z,99943.46
2018-05-12T07:31:11.431Z,99941.73
2018-05-12T07:35:14.251Z,99931.62
2018-05-12T07:39:17.605Z,99932.73
2018-05-12T07:43:20.200Z,99932.95
2018-05-12T07:47:22.899Z,99927.67
2018-05-12T07:51:25.671Z,99926.34
2018-05-12T07:55:28.408Z,99928.96
2018-05-12T07:59:30.926Z,99914.81
2018-05-12T08:03:33.571Z,99919.66
2018-05-12T08:07:36.144Z,99920.17
2018-05-12T08:11:38.731Z,99914.53
2018-05-12T08:15:41.341Z,99910.27
2018-05-12T08:19:44.774Z,99906.23
2018-05-12T08:23:47.386Z,99915.99
2018-05-12T08:27:49.903Z,99900.78
2018-05-12T08:31:52.455Z,99897.60
2018-05-12T08:35:55.016Z,99896.64
2018-05-12T08:39:57.604Z,99892.27
2018-05-12T08:44:00.177Z,99891.39
2018-05-12T08:48:02.702Z,99894.63
2018-05-12T08:52:05.200Z,99881.98
2018-05-12T08:56:07.759Z,99877.15
2018-05-12T09:00:11.297Z,99873.90
2018-05-12T09:04:13.839Z,99875.52
2018-05-12T09:08:16.392Z,99874.70
2018-05-12T09:12:18.927Z,99870.11
2018-05-12T09:16:21.466Z,99864.27
2018-05-12T09:20:23.996Z,99861.28
2018-05-12T09:24:27.442Z,99859.36
2018-05-12T09:28:30.075Z,99854.22
2018-05-12T09:32:32.564Z,99850.47
2018-05-12T09:36:35.108Z,99854.58
2018-05-12T09:40:37.645Z,99855.63
2018-05-12T09:44:40.176Z,99854.00
2018-05-12T09:48:49.658Z,99840.12
2018-05-12T09:52:52.182Z,99839.73
2018-05-12T09:56:54.728Z,99837.92
2018-05-12T10:00:57.267Z,99833.78
2018-05-12T10:09:08.598Z,99834.81
2018-05-12T10:13:11.107Z,99829.75
2018-05-12T10:17:13.632Z,99819.22
2018-05-12T10:21:16.140Z,99819.53
2018-05-12T10:25:18.655Z,99811.45
2018-05-12T10:29:21.180Z,99807.98
2018-05-12T10:33:23.656Z,99810.90
2018-05-12T10:37:26.171Z,99806.28
2018-05-12T10:41:28.645Z,99800.45
2018-05-12T10:45:31.149Z,99791.91
2018-05-12T10:49:33.649Z,99790.86
2018-05-12T10:53:36.153Z,99778.98
2018-05-12T10:57:38.660Z,99776.34
2018-05-12T11:01:41.128Z,99767.35
2018-05-12T11:05:43.656Z,99760.92
2018-05-12T11:09:49.152Z,99757.23
2018-05-12T11:13:51.701Z,99747.55
2018-05-12T11:17:54.203Z,99751.16
2018-05-12T11:21:56.798Z,99739.46
2018-05-12T11:25:59.194Z,99740.55
2018-05-12T11:30:01.690Z,99735.47
2018-05-12T11:34:04.176Z,99730.86
2018-05-12T11:38:06.660Z,99723.77
2018-05-12T11:42:09.165Z,99719.19
2018-05-12T11:46:11.621Z,99708.67
2018-05-12T11:50:14.092Z,99703.90
2018-05-12T11:54:16.576Z,99700.34
2018-05-12T11:58:19.158Z,99702.57
2018-05-12T12:02:21.557Z,99688.73
2018-05-12T12:06:24.051Z,99693.33
2018-05-12T12:10:26.518Z,99689.37
2018-05-12T12:14:29.008Z,99687.05
2018-05-12T12:18:31.485Z,99673.52
2018-05-12T12:22:33.993Z,99669.41
2018-05-12T12:26:36.511Z,99667.67
2018-05-12T12:30:39.019Z,99663.24
2018-05-12T12:34:41.524Z,99656.06
2018-05-12T12:38:44.006Z,99648.27
2018-05-12T12:42:46.476Z,99651.08
2018-05-12T12:46:48.960Z,99649.19
2018-05-12T12:50:51.448Z,99645.23
2018-05-12T12:54:53.939Z,99639.70
2018-05-12T12:58:56.440Z,99630.63
2018-05-12T13:02:58.915Z,99628.43
2018-05-12T13:07:01.433Z,99625.61
2018-05-12T13:11:03.918Z,99612.56
2018-05-12T13:15:06.403Z,99607.63
2018-05-12T13:19:08.900Z,99607.25
2018-05-12T13:23:11.388Z,99604.13
2018-05-12T13:27:13.886Z,99603.27
2018-05-12T13:31:16.388Z,99606.40
2018-05-12T13:35:18.840Z,99598.78
2018-05-12T13:39:21.321Z,99592.84
2018-05-12T13:43:23.809Z,99593.45
2018-05-12T13:47:26.266Z,99592.05
2018-05-12T13:51:28.743Z,99591.49
2018-05-12T13:55:31.229Z,99585.38
2018-05-12T13:59:33.708Z,99575.05
2018-05-12T14:03:36.200Z,99574.84
2018-05-12T14:07:38.676Z,99575.45
2018-05-12T14:11:41.159Z,99566.58
2018-05-12T14:15:43.636Z,99568.36
2018-05-12T14:19:46.117Z,99572.77
2018-05-12T14:23:48.614Z,99561.95
2018-05-12T14:27:51.072Z,99567.97
2018-05-12T14:31:53.555Z,99565.52
2018-05-12T14:35:56.037Z,99561.77
2018-05-12T14:39:58.500Z,99566.84
2018-05-12T14:44:00.982Z,99557.94
2018-05-12T14:48:03.472Z,99554.41
2018-05-12T14:52:05.957Z,99557.06
2018-05-12T14:56:08.413Z,99550.91
2018-05-12T15:00:10.904Z,99564.42
2018-05-12T15:04:13.380Z,99559.09
2018-05-12T15:08:15.904Z,99564.70
2018-05-12T15:12:18.367Z,99563.44
2018-05-12T15:16:20.867Z,99563.06
2018-05-12T15:20:47.405Z,99560.63
2018-05-12T15:24:49.919Z,99571.88
2018-05-12T15:28:52.447Z,99576.77
2018-05-12T15:32:54.937Z,99580.80
2018-05-12T15:36:57.442Z,99583.67
2018-05-12T15:40:59.905Z,99587.20
2018-05-12T15:45:02.516Z,99581.63
2018-05-12T15:49:05.004Z,99572.03
2018-05-12T15:53:07.476Z,99592.11
2018-05-12T15:57:09.960Z,99588.17
2018-05-12T16:01:12.451Z,99576.20
2018-05-12T16:05:14.914Z,99567.63
2018-05-12T16:09:17.407Z,99567.91
2018-05-12T16:13:19.892Z,99564.58
2018-05-12T16:17:22.383Z,99557.44
2018-05-12T16:21:24.841Z,99552.06
2018-05-12T16:25:27.326Z,99548.11
2018-05-12T16:29:29.789Z,99553.42
2018-05-12T16:33:32.273Z,99552.30
2018-05-12T16:37:34.768Z,99548.62
2018-05-12T16:41:37.222Z,99555.83
2018-05-12T16:45:39.711Z,99551.27
2018-05-12T16:49:42.195Z,99553.47
2018-05-12T16:53:44.706Z,99557.16
2018-05-12T16:57:47.158Z,99547.37
2018-05-12T17:01:49.664Z,99547.39
2018-05-12T17:05:52.115Z,99546.70
2018-05-12T17:09:54.602Z,99538.88
2018-05-12T17:13:57.095Z,99545.12
2018-05-12T17:17:59.567Z,99551.63
2018-05-12T17:22:02.050Z,99540.33
2018-05-12T17:26:04.541Z,99542.19
2018-05-12T17:30:07.051Z,99551.06
2018-05-12T17:34:09.515Z,99554.38
2018-05-12T17:38:12.002Z,99558.56
2018-05-12T17:42:14.489Z,99566.34
2018-05-12T17:46:16.986Z,99559.48
2018-05-12T17:50:19.442Z,99562.52
2018-05-12T17:54:21.928Z,99564.45
2018-05-12T17:58:24.410Z,99561.80
2018-05-12T18:02:26.882Z,99561.39
2018-05-12T18:06:29.336Z,99560.57
2018-05-12T18:10:31.830Z,99561.80
2018-05-12T18:14:34.331Z,99560.99
2018-05-12T18:18:36.780Z,99567.55
2018-05-12T18:22:39.259Z,99563.46
2018-05-12T18:26:41.748Z,99571.95
2018-05-12T18:30:44.216Z,99576.30
2018-05-12T18:34:46.709Z,99578.62
2018-05-12T18:38:49.189Z,99587.59
2018-05-12T18:42:51.651Z,99583.28
2018-05-12T18:46:54.149Z,99595.32
2018-05-12T18:50:56.608Z,99597.81
2018-05-12T18:54:59.087Z,99609.08
2018-05-12T18:59:01.612Z,99615.01
2018-05-12T19:03:04.090Z,99619.27
2018-05-12T19:07:06.583Z,99626.28
2018-05-12T19:11:09.084Z,99635.11
2018-05-12T19:15:11.561Z,99624.18
2018-05-12T19:19:14.063Z,99633.85
2018-05-12T19:23:16.521Z,99640.06
2018-05-12T19:27:19.286Z,99645.50
2018-05-12T19:31:21.800Z,99642.57
2018-05-12T19:35:24.264Z,99641.53
2018-05-12T19:39:26.750Z,99631.55
2018-05-12T19:43:29.240Z,99638.06
2018-05-12T19:47:31.694Z,99645.02
2018-05-12T19:51:34.208Z,99645.69
2018-05-12T19:55:36.672Z,99647.62
2018-05-12T19:59:39.183Z,99640.02
2018-05-12T20:03:41.717Z,99638.69
2018-05-12T20:07:45.482Z,99645.86
2018-05-12T20:11:47.971Z,99636.77
2018-05-12T20:15:50.452Z,99642.32
2018-05-12T20:19:52.913Z,99643.81
2018-05-12T20:23:55.404Z,99641.88
2018-05-12T20:27:57.892Z,99636.74
2018-05-12T20:32:00.404Z,99643.64
2018-05-12T20:36:02.945Z,99637.00
2018-05-12T20:40:05.440Z,99645.03
2018-05-12T20:44:07.923Z,99639.97
2018-05-12T20:48:10.413Z,99638.48
2018-05-12T20:52:12.930Z,99638.22
2018-05-12T20:56:15.435Z,99639.41
2018-05-12T21:00:17.894Z,99635.72
2018-05-12T21:04:20.374Z,99641.19
2018-05-12T21:08:22.862Z,99642.72
2018-05-12T21:12:25.347Z,99645.28
2018-05-12T21:16:27.832Z,99640.53
2018-05-12T21:20:30.422Z,99643.94
2018-05-12T21:24:32.879Z,99645.59
2018-05-12T21:28:35.364Z,99646.64
2018-05-12T21:32:37.846Z,99636.45
2018-05-12T21:36:40.300Z,99637.29
2018-05-12T21:40:42.790Z,99638.58
2018-05-12T21:44:45.286Z,99635.91
2018-05-12T21:48:47.743Z,99634.20
2018-05-12T21:52:50.228Z,99627.68
2018-05-12T21:56:52.698Z,99612.29
2018-05-12T22:00:56.246Z,99620.49
2018-05-12T22:04:58.755Z,99620.22
2018-05-12T22:09:01.219Z,99617.64
2018-05-12T22:13:03.705Z,99615.88
2018-05-12T22:17:06.209Z,99609.75
2018-05-12T22:21:08.679Z,99595.17
2018-05-12T22:25:11.177Z,99599.59
2018-05-12T22:29:13.646Z,99598.63
2018-05-12T22:33:16.150Z,99606.16
2018-05-12T22:37:18.637Z,99607.55
2018-05-12T22:41:21.128Z,99615.55
2018-05-12T22:45:23.591Z,99602.20
2018-05-12T22:49:27.043Z,99594.25
2018-05-12T22:53:29.507Z,99601.46
2018-05-12T22:57:32.018Z,99586.94
2018-05-12T23:01:34.488Z,99592.42
2018-05-12T23:05:36.991Z,99588.98
2018-05-12T23:09:39.474Z,99585.67
2018-05-12T23:13:41.962Z,99579.58
2018-05-12T23:17:44.651Z,99580.58
2018-05-12T23:21:47.144Z,99580.78
2018-05-12T23:25:49.612Z,99572.97
2018-05-12T23:29:52.103Z,99574.97
2018-05-12T23:33:54.607Z,99571.20
2018-05-12T23:37:57.098Z,99560.20
2018-05-12T23:41:59.595Z,99564.30
2018-05-12T23:46:02.098Z,99565.34
2018-05-12T23:50:04.580Z,99567.54
2018-05-12T23:54:07.083Z,99566.16
2018-05-12T23:58:09.608Z,99570.55
